Time;durP1;ratioP1;P1;durP2;ratioP2;P2;SDS_P1;SDS_P2;PMS_P1;PMS_P2;Temp;Humidity;BMP_temperature;BMP_pressure;BME280_temperature;BME280_humidity;BME280_pressure;Samples;Min_cycle;Max_cycle;Signal;HPM_P1;HPM_P2
2023/09/17 00:00:33;;;;;;;21.80;13.20;;;19.40;99.90;;;;;;4974282;28;20038;-55
2023/09/17 00:03:37;;;;;;;17.52;12.98;;;19.40;99.90;;;;;;4973984;28;20049;-55
2023/09/17 00:06:42;;;;;;;18.80;13.75;;;19.40;99.90;;;;;;4973417;28;20520;-55
2023/09/17 00:09:46;;;;;;;19.83;13.48;;;19.30;99.90;;;;;;4955075;28;20046;-54
2023/09/17 00:12:54;;;;;;;21.10;14.02;;;19.30;99.90;;;;;;4969199;28;20046;-54
2023/09/17 00:15:59;;;;;;;26.25;14.30;;;19.30;99.90;;;;;;4973961;28;20046;-59
2023/09/17 00:19:03;;;;;;;25.13;14.50;;;19.30;99.90;;;;;;4960249;28;20047;-57
2023/09/17 00:22:11;;;;;;;18.48;12.30;;;19.30;99.90;;;;;;4973508;28;20057;-54
2023/09/17 00:25:15;;;;;;;27.13;15.20;;;19.40;99.90;;;;;;4973171;28;20050;-55
2023/09/17 00:28:19;;;;;;;19.90;13.93;;;19.40;99.90;;;;;;4967193;28;20042;-58
2023/09/17 00:31:23;;;;;;;24.20;13.27;;;19.40;99.90;;;;;;4973212;28;20041;-58
2023/09/17 00:34:27;;;;;;;23.02;15.07;;;19.30;99.90;;;;;;4972256;28;20509;-56
2023/09/17 00:37:31;;;;;;;17.83;13.38;;;19.20;99.90;;;;;;4973720;28;20041;-57
2023/09/17 00:40:37;;;;;;;20.30;12.75;;;19.20;99.90;;;;;;4973673;28;20049;-58
2023/09/17 00:43:41;;;;;;;22.13;13.93;;;19.20;99.90;;;;;;4971889;28;20045;-57
2023/09/17 00:46:45;;;;;;;20.73;13.32;;;19.20;99.90;;;;;;4973555;28;20089;-57
2023/09/17 00:49:49;;;;;;;20.65;13.88;;;19.10;99.90;;;;;;4973461;28;20110;-58
2023/09/17 00:52:54;;;;;;;21.52;14.13;;;19.10;99.90;;;;;;4968664;28;20050;-54
2023/09/17 00:55:59;;;;;;;23.60;13.63;;;19.10;99.90;;;;;;4969720;28;20058;-56
2023/09/17 00:59:05;;;;;;;22.88;15.38;;;19.10;99.90;;;;;;4973269;28;20069;-57
2023/09/17 01:02:09;;;;;;;22.65;14.63;;;19.10;99.90;;;;;;4971808;28;20034;-57
2023/09/17 01:05:13;;;;;;;20.88;14.02;;;19.10;99.90;;;;;;4972709;28;20049;-57
2023/09/17 01:08:18;;;;;;;23.17;14.98;;;19.00;99.90;;;;;;4973067;28;20053;-56
2023/09/17 01:11:24;;;;;;;26.15;15.32;;;19.00;99.90;;;;;;4966589;28;20054;-54
2023/09/17 01:14:29;;;;;;;20.70;14.45;;;19.00;99.90;;;;;;4974868;28;20413;-57
2023/09/17 01:17:34;;;;;;;24.90;15.23;;;19.00;99.90;;;;;;4971769;28;20042;-57
2023/09/17 01:20:52;;;;;;;20.63;14.70;;;19.00;99.90;;;;;;4973022;28;20034;-57
2023/09/17 01:24:21;;;;;;;25.60;15.38;;;19.00;99.90;;;;;;4972428;28;20050;-55
2023/09/17 01:27:26;;;;;;;25.73;15.38;;;19.10;99.90;;;;;;4971427;28;20054;-56
2023/09/17 01:30:30;;;;;;;25.02;15.52;;;19.10;99.90;;;;;;4972794;28;20512;-56
2023/09/17 01:33:34;;;;;;;21.60;15.80;;;19.10;99.90;;;;;;4971148;28;20062;-58
2023/09/17 01:36:40;;;;;;;21.83;13.93;;;19.10;99.90;;;;;;4968232;28;20035;-55
2023/09/17 01:39:54;;;;;;;19.08;13.52;;;19.00;99.90;;;;;;4966991;28;20050;-54
2023/09/17 01:43:00;;;;;;;27.27;14.30;;;19.00;99.90;;;;;;4971634;28;20429;-56
2023/09/17 01:46:05;;;;;;;24.58;15.05;;;19.00;99.90;;;;;;4972301;28;20042;-57
2023/09/17 01:49:10;;;;;;;26.33;15.02;;;18.80;99.90;;;;;;4972413;28;20053;-56
2023/09/17 01:52:14;;;;;;;19.98;13.95;;;18.70;99.90;;;;;;4972351;28;20513;-55
2023/09/17 01:55:20;;;;;;;22.45;14.18;;;18.70;99.90;;;;;;4969680;28;20069;-54
2023/09/17 01:58:25;;;;;;;22.02;14.25;;;18.70;99.90;;;;;;4971445;28;20504;-56
2023/09/17 02:01:29;;;;;;;26.13;14.10;;;18.60;99.90;;;;;;4970957;28;20058;-54
2023/09/17 02:04:33;;;;;;;21.23;14.57;;;18.60;99.90;;;;;;4970272;28;20057;-56
2023/09/17 02:07:38;;;;;;;20.85;13.77;;;18.60;99.90;;;;;;4982674;28;20049;-53
2023/09/17 02:10:43;;;;;;;26.02;13.23;;;18.60;99.90;;;;;;4970977;28;20050;-54
2023/09/17 02:13:47;;;;;;;20.75;14.20;;;18.70;99.90;;;;;;4971667;28;20046;-54
2023/09/17 02:16:52;;;;;;;23.98;13.98;;;18.70;99.90;;;;;;4971305;28;20057;-56
2023/09/17 02:19:56;;;;;;;24.50;13.70;;;18.60;99.90;;;;;;4967284;28;20038;-54
2023/09/17 02:23:00;;;;;;;20.08;14.18;;;18.60;99.90;;;;;;4971667;28;20041;-53
2023/09/17 02:26:04;;;;;;;20.80;13.70;;;18.60;99.90;;;;;;4971698;28;20524;-58
2023/09/17 02:29:08;;;;;;;22.25;14.10;;;18.60;99.90;;;;;;4967268;28;20070;-56
2023/09/17 02:32:13;;;;;;;22.52;14.15;;;18.50;99.90;;;;;;4971831;28;20053;-55
2023/09/17 02:35:17;;;;;;;23.60;14.88;;;18.50;99.90;;;;;;4970495;28;20054;-56
2023/09/17 02:38:21;;;;;;;29.60;15.95;;;18.40;99.90;;;;;;4970577;28;20057;-55
2023/09/17 02:41:25;;;;;;;26.85;15.77;;;18.40;99.90;;;;;;4971953;28;20402;-58
2023/09/17 02:44:29;;;;;;;22.30;15.77;;;18.30;99.90;;;;;;4971637;28;20763;-54
2023/09/17 02:47:33;;;;;;;21.23;14.95;;;18.30;99.90;;;;;;4971902;28;20057;-54
2023/09/17 02:50:39;;;;;;;24.15;14.55;;;18.20;99.90;;;;;;4972052;28;20046;-57
2023/09/17 02:53:46;;;;;;;24.95;16.00;;;18.20;99.90;;;;;;4970042;28;20041;-57
2023/09/17 02:56:50;;;;;;;23.83;15.90;;;18.10;99.90;;;;;;4971719;28;20107;-56
2023/09/17 02:59:54;;;;;;;25.65;15.13;;;18.10;99.90;;;;;;4971895;28;20046;-56
2023/09/17 03:02:58;;;;;;;23.70;15.55;;;18.10;99.90;;;;;;4970784;28;20050;-59
2023/09/17 03:06:02;;;;;;;22.02;15.75;;;18.10;99.90;;;;;;4970842;28;20053;-57
2023/09/17 03:09:11;;;;;;;24.17;15.50;;;18.20;99.90;;;;;;4979150;28;20516;-54
2023/09/17 03:12:15;;;;;;;24.65;14.85;;;18.20;99.90;;;;;;4970808;28;20053;-54
2023/09/17 03:15:20;;;;;;;22.48;15.32;;;18.10;99.90;;;;;;4970018;28;20046;-57
2023/09/17 03:18:24;;;;;;;23.70;14.63;;;18.10;99.90;;;;;;4972761;28;20050;-58
2023/09/17 03:21:28;;;;;;;25.77;13.85;;;18.10;99.90;;;;;;4974038;28;20038;-57
2023/09/17 03:24:32;;;;;;;23.67;16.25;;;18.10;99.90;;;;;;4973787;28;20045;-55
2023/09/17 03:27:36;;;;;;;27.65;18.63;;;18.10;99.90;;;;;;4975092;28;20046;-55
2023/09/17 03:30:41;;;;;;;26.92;18.30;;;18.20;99.90;;;;;;4967673;28;20093;-57
2023/09/17 03:33:46;;;;;;;33.72;20.52;;;18.10;99.90;;;;;;4973626;28;20058;-55
2023/09/17 03:36:50;;;;;;;29.45;18.50;;;18.00;99.90;;;;;;4974043;28;20406;-57
2023/09/17 03:40:07;;;;;;;25.92;17.98;;;18.00;99.90;;;;;;4974011;28;20046;-53
2023/09/17 03:43:13;;;;;;;30.52;18.77;;;18.00;99.90;;;;;;4984906;28;20506;-57
2023/09/17 03:46:18;;;;;;;28.15;17.52;;;18.00;99.90;;;;;;4971519;28;20062;-55
2023/09/17 03:49:24;;;;;;;29.05;18.00;;;18.10;99.90;;;;;;4973805;28;20049;-57
2023/09/17 03:52:29;;;;;;;22.05;15.60;;;18.10;99.90;;;;;;4973719;28;20433;-57
2023/09/17 03:55:34;;;;;;;27.05;15.85;;;18.10;99.90;;;;;;4984258;28;20062;-53
2023/09/17 03:58:39;;;;;;;23.25;13.60;;;18.20;99.90;;;;;;4967791;28;20046;-55
2023/09/17 04:01:44;;;;;;;25.75;15.23;;;18.20;99.90;;;;;;4974522;28;20046;-56
2023/09/17 04:04:48;;;;;;;20.90;13.18;;;18.20;99.90;;;;;;4971654;28;20049;-58
2023/09/17 04:07:53;;;;;;;25.75;13.27;;;18.20;99.90;;;;;;4974375;28;20418;-55
2023/09/17 04:10:57;;;;;;;24.98;14.70;;;18.30;99.90;;;;;;4973243;28;20049;-53
2023/09/17 04:14:00;;;;;;;21.23;15.38;;;18.20;99.90;;;;;;4973101;28;20070;-54
2023/09/17 04:17:05;;;;;;;30.42;16.85;;;17.90;99.90;;;;;;4969948;28;20042;-56
2023/09/17 04:20:13;;;;;;;22.58;15.82;;;17.80;99.90;;;;;;4971146;28;20054;-53
2023/09/17 04:23:17;;;;;;;38.90;17.73;;;17.70;99.90;;;;;;4972514;28;20049;-57
2023/09/17 04:26:24;;;;;;;26.45;17.58;;;17.70;99.90;;;;;;4972801;28;20050;-54
2023/09/17 04:29:28;;;;;;;27.02;17.88;;;17.60;99.90;;;;;;4983626;28;20046;-53
2023/09/17 04:32:37;;;;;;;27.90;15.90;;;17.60;99.90;;;;;;4967885;28;20050;-56
2023/09/17 04:35:42;;;;;;;29.25;16.75;;;17.60;99.90;;;;;;4972419;28;20058;-55
2023/09/17 04:38:46;;;;;;;20.77;16.27;;;17.60;99.90;;;;;;4972777;28;20517;-56
2023/09/17 04:41:52;;;;;;;27.50;15.98;;;17.50;99.90;;;;;;4968254;28;20042;-54
2023/09/17 04:44:56;;;;;;;22.15;14.30;;;17.50;99.90;;;;;;4983326;28;20509;-54
2023/09/17 04:48:01;;;;;;;23.85;15.65;;;17.40;99.90;;;;;;4972382;28;20050;-56
2023/09/17 04:51:06;;;;;;;23.20;14.85;;;17.40;99.90;;;;;;4972636;28;20545;-58
2023/09/17 04:54:10;;;;;;;27.98;16.48;;;17.40;99.90;;;;;;4972856;28;20081;-54
2023/09/17 04:57:15;;;;;;;27.25;15.95;;;17.50;99.90;;;;;;4971940;28;20045;-56
2023/09/17 05:00:20;;;;;;;24.75;14.07;;;17.50;99.90;;;;;;4972475;28;20401;-55
2023/09/17 05:03:24;;;;;;;20.27;13.27;;;17.60;99.90;;;;;;4982712;28;20516;-54
2023/09/17 05:06:29;;;;;;;19.13;12.98;;;17.60;99.90;;;;;;4972279;28;20428;-55
2023/09/17 05:09:33;;;;;;;19.50;12.63;;;17.70;99.90;;;;;;4972437;28;20046;-54
2023/09/17 05:12:37;;;;;;;22.73;13.20;;;17.80;99.90;;;;;;4971852;28;20046;-59
2023/09/17 05:15:41;;;;;;;19.58;13.23;;;17.90;99.90;;;;;;4971573;28;20049;-58
2023/09/17 05:18:47;;;;;;;24.10;14.13;;;18.00;99.90;;;;;;4972182;28;20038;-57
2023/09/17 05:21:51;;;;;;;27.17;12.85;;;18.20;99.90;;;;;;4982406;28;20061;-57
2023/09/17 05:24:55;;;;;;;19.33;12.77;;;18.40;99.90;;;;;;4972289;28;20502;-57
2023/09/17 05:27:59;;;;;;;20.88;12.15;;;18.70;99.90;;;;;;4970015;28;20074;-55
2023/09/17 05:31:03;;;;;;;26.95;13.45;;;18.90;99.90;;;;;;4968193;28;20053;-59
2023/09/17 05:34:08;;;;;;;23.77;12.52;;;18.90;99.90;;;;;;4972107;28;20049;-59
2023/09/17 05:37:12;;;;;;;17.13;12.30;;;19.00;99.90;;;;;;4974737;28;20046;-56
2023/09/17 05:40:16;;;;;;;21.33;11.93;;;19.20;99.90;;;;;;4971600;28;20046;-54
2023/09/17 05:43:20;;;;;;;19.95;11.40;;;19.30;99.90;;;;;;4971662;28;20049;-59
2023/09/17 05:46:25;;;;;;;15.85;9.70;;;19.80;99.90;;;;;;4981894;28;20409;-56
2023/09/17 05:49:29;;;;;;;14.68;9.30;;;21.00;99.90;;;;;;4971375;28;20057;-55
2023/09/17 05:52:33;;;;;;;18.80;9.68;;;21.90;99.90;;;;;;4969938;28;20049;-55
2023/09/17 05:55:37;;;;;;;14.75;9.05;;;22.20;99.90;;;;;;4970835;28;20046;-54
2023/09/17 05:58:41;;;;;;;15.70;9.35;;;21.80;99.90;;;;;;4971197;28;20042;-55
2023/09/17 06:01:47;;;;;;;23.80;8.90;;;21.40;99.90;;;;;;4970764;28;20033;-57
2023/09/17 06:04:53;;;;;;;22.17;10.07;;;21.20;99.90;;;;;;4970897;28;20127;-57
2023/09/17 06:07:57;;;;;;;18.40;9.13;;;21.00;99.90;;;;;;4971262;28;20050;-58
2023/09/17 06:11:02;;;;;;;24.65;10.55;;;21.00;99.90;;;;;;4970830;28;20050;-54
2023/09/17 06:14:05;;;;;;;15.02;9.02;;;21.10;99.90;;;;;;4970757;28;20054;-54
2023/09/17 06:17:10;;;;;;;12.88;8.60;;;22.10;99.90;;;;;;4982321;28;20054;-54
2023/09/17 06:20:14;;;;;;;15.23;8.40;;;23.60;99.90;;;;;;4971248;28;20050;-54
2023/09/17 06:23:18;;;;;;;18.98;8.15;;;24.60;99.90;;;;;;4971027;28;20038;-58
2023/09/17 06:26:23;;;;;;;16.58;8.63;;;24.60;99.90;;;;;;4970765;28;20130;-56
2023/09/17 06:29:27;;;;;;;17.42;9.23;;;24.70;99.90;;;;;;4970538;28;20500;-55
2023/09/17 06:32:31;;;;;;;13.02;7.72;;;25.30;99.90;;;;;;4971051;28;20042;-55
2023/09/17 06:35:35;;;;;;;12.10;7.30;;;25.80;99.90;;;;;;4970339;28;20046;-56
2023/09/17 06:38:40;;;;;;;11.63;7.75;;;25.30;99.90;;;;;;5008791;23;20056;-51
2023/09/17 06:41:44;;;;;;;11.25;7.47;;;24.60;99.90;;;;;;5009172;28;20044;-50
2023/09/17 06:44:49;;;;;;;10.95;6.50;;;24.30;99.90;;;;;;5010386;28;20057;-56
2023/09/17 06:47:52;;;;;;;8.55;7.15;;;24.60;99.90;;;;;;5021293;28;20044;-51
2023/09/17 06:50:57;;;;;;;11.00;6.93;;;23.80;99.90;;;;;;5027726;28;20400;-54
2023/09/17 06:54:01;;;;;;;8.50;6.93;;;24.20;99.90;;;;;;5033621;28;20060;-57
2023/09/17 06:57:05;;;;;;;8.05;6.60;;;24.60;99.90;;;;;;5034246;28;20056;-58
2023/09/17 07:00:10;;;;;;;10.95;6.32;;;26.10;99.90;;;;;;5030343;28;20046;-53
2023/09/17 07:03:14;;;;;;;10.90;6.93;;;27.80;99.90;;;;;;5033924;28;20040;-52
2023/09/17 07:06:18;;;;;;;11.50;5.40;;;27.60;99.90;;;;;;5033989;28;20044;-55
2023/09/17 07:09:23;;;;;;;13.45;6.50;;;26.80;99.90;;;;;;5033905;28;20049;-52
2023/09/17 07:12:27;;;;;;;11.85;6.35;;;25.90;99.90;;;;;;5033890;28;20044;-51
2023/09/17 07:15:30;;;;;;;15.70;7.38;;;25.40;99.90;;;;;;5033685;28;20108;-52
2023/09/17 07:18:34;;;;;;;11.10;6.25;;;25.00;99.90;;;;;;5026702;28;20048;-51
2023/09/17 07:21:38;;;;;;;13.63;7.30;;;24.30;99.90;;;;;;5033883;28;20045;-54
2023/09/17 07:24:42;;;;;;;13.15;6.95;;;24.30;99.90;;;;;;5033210;28;20044;-51
2023/09/17 07:27:46;;;;;;;18.55;7.50;;;24.10;99.90;;;;;;5033411;28;20044;-53
2023/09/17 07:30:57;;;;;;;13.55;7.95;;;23.40;99.90;;;;;;5033747;28;20040;-51
2023/09/17 07:34:00;;;;;;;11.43;7.70;;;23.00;99.90;;;;;;5033223;28;20044;-52
2023/09/17 07:37:05;;;;;;;11.88;7.70;;;22.60;99.90;;;;;;5029360;28;20095;-51
2023/09/17 07:40:10;;;;;;;15.32;8.15;;;23.00;99.90;;;;;;5033437;28;20044;-51
2023/09/17 07:43:13;;;;;;;12.00;7.35;;;23.30;99.90;;;;;;5031292;28;20407;-55
2023/09/17 07:46:18;;;;;;;12.75;7.88;;;23.70;99.90;;;;;;5033423;28;20045;-51
2023/09/17 07:49:26;;;;;;;11.27;7.88;;;24.00;99.90;;;;;;5033269;28;20048;-54
2023/09/17 07:52:30;;;;;;;11.80;6.80;;;24.50;99.90;;;;;;5032687;28;20117;-57
2023/09/17 07:55:34;;;;;;;11.77;6.90;;;25.50;99.90;;;;;;5032755;28;20048;-56
2023/09/17 07:58:38;;;;;;;8.98;6.20;;;26.20;99.90;;;;;;5033136;28;20044;-53
2023/09/17 08:01:42;;;;;;;8.85;5.90;;;26.90;99.90;;;;;;5025853;28;20041;-51
2023/09/17 08:04:46;;;;;;;11.43;5.88;;;27.20;99.90;;;;;;5032509;28;20236;-51
2023/09/17 08:07:50;;;;;;;12.60;5.20;;;28.70;99.90;;;;;;5027359;28;20064;-54
2023/09/17 08:10:54;;;;;;;11.10;5.85;;;29.40;99.90;;;;;;5027401;28;20052;-55
2023/09/17 08:13:58;;;;;;;11.40;5.68;;;30.50;99.90;;;;;;5032512;28;20407;-51
2023/09/17 08:17:04;;;;;;;12.90;6.25;;;28.90;99.90;;;;;;5030502;28;20427;-53
2023/09/17 08:20:09;;;;;;;12.40;5.93;;;28.60;99.90;;;;;;5032825;28;20053;-51
2023/09/17 08:23:13;;;;;;;10.50;6.53;;;28.10;99.90;;;;;;5032310;28;20044;-57
2023/09/17 08:26:30;;;;;;;12.60;6.53;;;27.50;99.90;;;;;;5025245;28;20053;-51
2023/09/17 08:29:52;;;;;;;10.55;6.13;;;27.60;99.90;;;;;;5026624;28;20408;-51
2023/09/17 08:33:16;;;;;;;11.55;4.90;;;29.40;99.90;;;;;;5032495;28;20044;-52
2023/09/17 08:36:40;;;;;;;10.55;4.78;;;31.90;99.90;;;;;;5024921;28;20040;-51
2023/09/17 08:39:44;;;;;;;9.45;4.75;;;34.50;99.90;;;;;;5032369;28;20048;-51
2023/09/17 08:42:48;;;;;;;7.03;3.85;;;35.70;97.30;;;;;;5032303;28;20417;-51
2023/09/17 08:45:53;;;;;;;12.38;4.20;;;37.10;95.60;;;;;;5030441;28;20049;-50
2023/09/17 08:48:58;;;;;;;7.82;4.10;;;38.40;92.90;;;;;;5032051;28;20049;-52
2023/09/17 08:52:04;;;;;;;8.60;4.07;;;37.40;92.70;;;;;;5029680;28;20827;-54
2023/09/17 08:55:10;;;;;;;13.00;4.97;;;38.50;92.00;;;;;;5028103;28;20052;-53
2023/09/17 08:58:24;;;;;;;11.27;4.63;;;38.30;91.30;;;;;;5031952;28;20049;-52
2023/09/17 09:01:28;;;;;;;14.45;4.30;;;36.20;92.20;;;;;;5030375;28;20040;-52
2023/09/17 09:04:34;;;;;;;11.23;4.30;;;35.00;94.30;;;;;;5031118;28;20033;-53
2023/09/17 09:07:39;;;;;;;6.65;3.95;;;35.80;93.50;;;;;;5031984;28;20056;-54
2023/09/17 09:10:44;;;;;;;9.00;4.00;;;37.70;92.80;;;;;;5023182;28;20041;-55
2023/09/17 09:13:51;;;;;;;15.77;4.22;;;39.20;91.10;;;;;;5024675;28;20052;-57
2023/09/17 09:16:55;;;;;;;5.70;4.07;;;37.80;90.70;;;;;;5031403;28;20040;-56
2023/09/17 09:19:59;;;;;;;6.20;3.50;;;38.60;90.60;;;;;;5026027;28;20045;-56
2023/09/17 09:23:05;;;;;;;9.25;3.67;;;37.90;90.40;;;;;;5027203;28;20057;-57
2023/09/17 09:26:09;;;;;;;9.93;3.90;;;39.80;90.10;;;;;;5031653;28;20448;-58
2023/09/17 09:29:13;;;;;;;9.15;4.13;;;40.10;87.60;;;;;;5026405;28;20076;-55
2023/09/17 09:32:17;;;;;;;9.82;3.97;;;39.30;88.40;;;;;;5031315;28;20044;-55
2023/09/17 09:35:22;;;;;;;10.73;4.78;;;38.90;87.80;;;;;;5030947;28;20053;-57
2023/09/17 09:38:28;;;;;;;7.55;3.80;;;38.60;88.70;;;;;;5028851;28;20056;-54
2023/09/17 09:41:34;;;;;;;8.32;4.15;;;38.90;88.40;;;;;;5031288;28;20044;-56
2023/09/17 09:44:38;;;;;;;5.60;3.75;;;37.80;89.80;;;;;;5030847;28;20048;-53
2023/09/17 09:47:49;;;;;;;12.20;4.20;;;36.30;89.30;;;;;;5023108;28;20049;-58
2023/09/17 09:50:53;;;;;;;8.45;4.70;;;36.30;90.60;;;;;;5030820;28;20048;-55
2023/09/17 09:53:57;;;;;;;8.02;4.40;;;35.20;91.40;;;;;;5030778;28;20514;-54
2023/09/17 09:57:05;;;;;;;12.90;4.60;;;34.50;92.30;;;;;;5026017;28;20618;-54
2023/09/17 10:00:13;;;;;;;7.03;4.30;;;34.70;91.60;;;;;;5031137;28;20052;-55
2023/09/17 10:03:19;;;;;;;9.40;4.93;;;34.30;91.70;;;;;;5030454;28;20040;-56
2023/09/17 10:06:24;;;;;;;7.88;4.20;;;34.30;91.60;;;;;;5022457;28;20127;-56
2023/09/17 10:09:28;;;;;;;9.93;4.00;;;36.00;90.40;;;;;;5030546;28;20400;-55
2023/09/17 10:12:32;;;;;;;7.38;3.60;;;36.30;88.90;;;;;;5030880;28;20416;-51
2023/09/17 10:15:37;;;;;;;8.15;3.85;;;37.00;86.30;;;;;;5025788;28;20040;-55
2023/09/17 10:18:43;;;;;;;9.30;4.43;;;35.80;88.80;;;;;;5030465;28;20032;-54
2023/09/17 10:21:48;;;;;;;8.25;4.20;;;36.20;88.60;;;;;;5031392;28;20044;-56
2023/09/17 10:24:53;;;;;;;11.75;4.35;;;36.70;88.60;;;;;;5029942;28;20060;-50
2023/09/17 10:27:59;;;;;;;9.80;5.22;;;36.70;89.30;;;;;;5034881;28;20037;-55
2023/09/17 10:31:03;;;;;;;8.02;3.75;;;37.10;87.30;;;;;;5034977;28;20538;-55
2023/09/17 10:34:09;;;;;;;13.35;4.60;;;36.60;87.80;;;;;;5032525;28;20040;-53
2023/09/17 10:37:16;;;;;;;10.23;4.82;;;34.40;89.90;;;;;;5034555;28;20045;-58
2023/09/17 10:40:20;;;;;;;11.88;4.43;;;36.10;89.30;;;;;;5034630;28;20044;-54
2023/09/17 10:43:25;;;;;;;15.90;4.60;;;35.30;90.20;;;;;;5032997;28;20045;-53
2023/09/17 10:46:31;;;;;;;13.98;4.25;;;36.10;90.00;;;;;;5034041;28;20614;-54
2023/09/17 10:49:38;;;;;;;13.15;4.63;;;35.90;89.20;;;;;;5034446;28;20044;-58
2023/09/17 10:52:42;;;;;;;19.70;4.95;;;36.00;89.80;;;;;;5026941;28;20048;-59
2023/09/17 10:55:57;;;;;;;20.60;4.90;;;36.70;89.00;;;;;;5034092;28;20515;-52
2023/09/17 10:59:04;;;;;;;13.43;4.78;;;35.90;87.70;;;;;;5032461;28;20045;-59
2023/09/17 11:02:10;;;;;;;14.85;5.03;;;35.00;90.00;;;;;;5030398;28;20045;-57
2023/09/17 11:05:18;;;;;;;12.18;4.22;;;34.10;90.60;;;;;;5033713;28;20080;-58
2023/09/17 11:08:23;;;;;;;21.73;5.38;;;34.70;90.80;;;;;;5032971;28;20044;-53
2023/09/17 11:11:30;;;;;;;15.48;4.47;;;34.80;90.30;;;;;;5034125;28;20048;-55
2023/09/17 11:14:33;;;;;;;18.35;4.65;;;35.60;89.50;;;;;;5033539;28;20064;-56
2023/09/17 11:17:38;;;;;;;14.82;4.40;;;35.60;89.20;;;;;;5031464;28;20494;-59
2023/09/17 11:21:00;;;;;;;14.65;4.85;;;34.30;90.70;;;;;;5034010;28;20045;-57
2023/09/17 11:24:07;;;;;;;30.38;5.93;;;33.60;91.00;;;;;;5033124;28;20507;-55
2023/09/17 11:27:12;;;;;;;18.63;4.75;;;32.60;91.10;;;;;;5031744;28;20060;-53
2023/09/17 11:30:17;;;;;;;15.55;4.35;;;33.40;91.30;;;;;;5033752;28;20048;-56
2023/09/17 11:33:22;;;;;;;12.73;4.88;;;33.90;90.90;;;;;;5031443;28;20056;-61
2023/09/17 11:36:26;;;;;;;21.17;5.18;;;33.30;90.60;;;;;;5033044;28;20404;-57
2023/09/17 11:39:33;;;;;;;11.93;4.60;;;32.70;91.10;;;;;;5032821;28;20045;-57
2023/09/17 11:42:37;;;;;;;16.35;5.18;;;32.40;91.20;;;;;;5027945;28;20037;-56
2023/09/17 11:45:41;;;;;;;23.40;5.57;;;32.80;91.50;;;;;;5033283;28;20400;-52
2023/09/17 11:48:45;;;;;;;17.13;5.25;;;32.80;91.50;;;;;;5028591;28;20041;-53
2023/09/17 11:51:49;;;;;;;13.35;5.07;;;33.10;90.90;;;;;;5026840;28;20040;-56
2023/09/17 11:55:01;;;;;;;16.35;4.70;;;33.00;90.90;;;;;;5032995;28;20040;-53
2023/09/17 11:58:18;;;;;;;13.55;4.57;;;33.30;91.20;;;;;;5030161;28;20049;-51
2023/09/17 12:01:24;;;;;;;15.52;4.88;;;33.50;90.70;;;;;;5032726;28;20507;-54
2023/09/17 12:04:31;;;;;;;11.98;4.80;;;33.60;90.70;;;;;;5032363;28;20044;-56
2023/09/17 12:07:36;;;;;;;10.48;4.63;;;33.20;91.10;;;;;;5025332;28;20048;-53
2023/09/17 12:10:49;;;;;;;14.63;4.13;;;34.00;90.10;;;;;;5032811;28;20044;-54
2023/09/17 12:13:56;;;;;;;23.02;4.90;;;34.20;89.30;;;;;;5032274;28;20040;-51
2023/09/17 12:17:01;;;;;;;11.00;4.43;;;34.80;88.20;;;;;;5027246;28;20546;-55
2023/09/17 12:20:30;;;;;;;17.33;4.53;;;35.40;87.20;;;;;;5032498;28;20070;-58
2023/09/17 12:27:43;;;;;;;13.55;4.30;;;35.50;86.60;;;;;;5027082;28;20044;-51
2023/09/17 12:30:29;;;;;;;11.05;3.95;;;36.10;86.30;;;;;;5032692;28;20056;-55
2023/09/17 12:33:33;;;;;;;11.40;3.95;;;35.90;86.20;;;;;;5026285;28;20036;-55
2023/09/17 12:36:42;;;;;;;12.32;3.95;;;36.20;87.10;;;;;;5031854;28;20037;-54
2023/09/17 12:39:46;;;;;;;13.20;4.35;;;37.00;85.10;;;;;;4985863;23;1404310;-54
2023/09/17 12:42:54;;;;;;;11.35;3.72;;;37.50;84.90;;;;;;5012680;28;20132;-54
2023/09/17 12:45:58;;;;;;;11.30;3.72;;;37.70;83.70;;;;;;5013177;28;20044;-57
2023/09/17 12:49:02;;;;;;;12.75;3.80;;;37.80;84.10;;;;;;5005769;28;20041;-57
2023/09/17 12:52:11;;;;;;;9.27;3.88;;;37.60;83.60;;;;;;5012621;28;20515;-57
2023/09/17 12:55:19;;;;;;;16.98;4.60;;;34.60;85.40;;;;;;5011722;28;20413;-55
2023/09/17 12:58:23;;;;;;;13.95;4.47;;;35.50;85.70;;;;;;5010074;28;20041;-58
2023/09/17 13:01:30;;;;;;;9.70;3.65;;;34.80;85.80;;;;;;5012357;28;20053;-58
2023/09/17 13:04:39;;;;;;;11.00;4.05;;;36.80;84.50;;;;;;5010785;28;20527;-59
2023/09/17 13:07:45;;;;;;;8.75;4.18;;;37.50;83.30;;;;;;5004810;28;20057;-58
2023/09/17 13:10:50;;;;;;;14.35;4.20;;;37.80;83.80;;;;;;5012204;28;20492;-56
2023/09/17 13:13:54;;;;;;;18.88;4.38;;;37.20;82.80;;;;;;5007172;28;20049;-56
2023/09/17 13:17:05;;;;;;;12.70;4.45;;;38.30;83.10;;;;;;5011754;28;20045;-54
2023/09/17 13:20:12;;;;;;;12.48;4.03;;;38.30;82.50;;;;;;5011160;28;20041;-57
2023/09/17 13:23:17;;;;;;;12.75;3.88;;;35.30;83.20;;;;;;5004721;28;20045;-57
2023/09/17 13:26:22;;;;;;;16.35;4.40;;;34.70;85.10;;;;;;5011904;28;20052;-55
2023/09/17 13:29:36;;;;;;;17.05;4.22;;;34.80;84.50;;;;;;5010337;28;20405;-56
2023/09/17 13:32:46;;;;;;;13.63;4.10;;;36.40;84.00;;;;;;5004312;28;20048;-54
2023/09/17 13:35:51;;;;;;;13.40;4.20;;;37.10;82.10;;;;;;5011575;28;20408;-55
2023/09/17 13:38:56;;;;;;;13.23;4.03;;;36.40;83.80;;;;;;5005938;28;20056;-55
2023/09/17 13:42:00;;;;;;;15.00;4.43;;;35.60;83.60;;;;;;5011726;28;20045;-58
2023/09/17 13:45:05;;;;;;;14.10;3.80;;;36.50;84.10;;;;;;5011275;28;20396;-56
2023/09/17 13:48:12;;;;;;;13.20;3.95;;;37.80;82.80;;;;;;5007341;28;20053;-54
2023/09/17 13:51:17;;;;;;;10.23;3.92;;;37.50;82.10;;;;;;5011259;28;20037;-56
2023/09/17 13:54:24;;;;;;;12.75;4.05;;;36.20;83.10;;;;;;5010972;28;20040;-54
2023/09/17 13:57:32;;;;;;;13.35;3.80;;;37.30;81.70;;;;;;5009170;28;20528;-55
2023/09/17 14:00:36;;;;;;;17.58;4.30;;;37.80;80.40;;;;;;5010446;28;20053;-57
2023/09/17 14:03:49;;;;;;;14.25;4.00;;;37.60;79.40;;;;;;5008313;28;20049;-55
2023/09/17 14:06:55;;;;;;;12.98;4.25;;;37.60;80.00;;;;;;5010408;28;20056;-55
2023/09/17 14:09:59;;;;;;;14.88;3.88;;;34.40;83.40;;;;;;5011045;28;20052;-56
2023/09/17 14:13:06;;;;;;;14.43;4.28;;;34.90;84.50;;;;;;5005896;28;20660;-55
2023/09/17 14:16:11;;;;;;;15.77;4.43;;;35.30;84.90;;;;;;5010944;28;20052;-58
2023/09/17 14:19:17;;;;;;;12.07;4.50;;;34.30;85.20;;;;;;5011152;28;20041;-57
2023/09/17 14:22:21;;;;;;;15.70;4.45;;;33.10;85.80;;;;;;5009225;28;20041;-54
2023/09/17 14:25:27;;;;;;;15.55;4.68;;;33.60;86.80;;;;;;5010477;28;20037;-58
2023/09/17 14:28:31;;;;;;;14.20;4.55;;;33.00;87.10;;;;;;5009177;28;20045;-59
2023/09/17 14:31:36;;;;;;;11.18;4.47;;;33.10;86.60;;;;;;5010039;28;20045;-58
2023/09/17 14:34:41;;;;;;;14.63;4.03;;;33.70;85.60;;;;;;5009494;28;20064;-58
2023/09/17 14:37:47;;;;;;;17.30;4.55;;;33.90;85.00;;;;;;5006221;28;20140;-58
2023/09/17 14:40:52;;;;;;;13.18;4.88;;;32.70;86.10;;;;;;5010869;28;20515;-54
2023/09/17 14:44:01;;;;;;;12.00;4.13;;;32.90;87.70;;;;;;5010402;28;20444;-56
2023/09/17 14:47:05;;;;;;;15.32;4.43;;;32.70;88.10;;;;;;5007181;28;20041;-58
2023/09/17 14:50:11;;;;;;;12.93;4.47;;;32.40;88.40;;;;;;5010719;28;20068;-56
2023/09/17 14:53:15;;;;;;;15.20;4.53;;;32.10;88.30;;;;;;5010678;28;20056;-59
2023/09/17 14:56:20;;;;;;;13.15;4.80;;;32.00;88.50;;;;;;5004802;28;20421;-57
2023/09/17 14:59:24;;;;;;;12.13;3.97;;;32.20;88.90;;;;;;5010889;28;20397;-55
2023/09/17 15:02:29;;;;;;;16.65;4.80;;;32.20;87.80;;;;;;5010778;28;20037;-54
2023/09/17 15:05:33;;;;;;;13.63;4.22;;;32.00;88.00;;;;;;5009681;28;20045;-57
2023/09/17 15:08:37;;;;;;;19.80;4.90;;;31.30;89.00;;;;;;5010623;28;20408;-56
2023/09/17 15:11:42;;;;;;;14.95;5.28;;;30.90;90.00;;;;;;5010745;28;20037;-56
2023/09/17 15:14:47;;;;;;;11.43;4.88;;;31.10;90.10;;;;;;5010731;28;20040;-54
2023/09/17 15:17:51;;;;;;;10.80;4.60;;;31.50;89.80;;;;;;5014015;28;20049;-57
2023/09/17 15:20:55;;;;;;;13.57;5.07;;;31.60;90.30;;;;;;5014247;28;20049;-54
2023/09/17 15:24:02;;;;;;;14.27;4.90;;;31.00;90.40;;;;;;5011963;28;20033;-55
2023/09/17 15:27:06;;;;;;;15.35;4.72;;;30.80;90.80;;;;;;5014094;28;20049;-54
2023/09/17 15:30:11;;;;;;;16.25;4.55;;;30.60;90.60;;;;;;5013250;28;20061;-57
2023/09/17 15:33:16;;;;;;;13.40;4.75;;;31.00;90.00;;;;;;5010431;28;20061;-57
2023/09/17 15:36:20;;;;;;;13.80;4.32;;;30.70;90.20;;;;;;5013569;28;20045;-56
2023/09/17 15:39:25;;;;;;;13.68;4.30;;;30.70;90.60;;;;;;5008422;28;20041;-54
2023/09/17 15:42:29;;;;;;;12.57;4.13;;;30.60;90.00;;;;;;5013823;28;20522;-56
2023/09/17 15:45:34;;;;;;;10.25;3.88;;;30.40;90.20;;;;;;5013434;28;20049;-56
2023/09/17 15:48:38;;;;;;;11.38;4.40;;;30.30;90.10;;;;;;5006094;28;20417;-58
2023/09/17 15:51:42;;;;;;;11.95;4.15;;;30.30;90.50;;;;;;5013591;28;20049;-58